sensor_id;sensor_type;location;lat;lon;timestamp;pressure;altitude;pressure_sealevel;temperature;humidity
75065;BME280;63646;49.110;9.140;2022-12-13T00:00:28;98845.34;;;20.91;53.40
75065;BME280;63646;49.110;9.140;2022-12-13T00:02:54;98840.88;;;20.92;53.16
75065;BME280;63646;49.110;9.140;2022-12-13T00:05:19;98839.34;;;20.89;53.22
75065;BME280;63646;49.110;9.140;2022-12-13T00:07:45;98841.00;;;20.90;52.89
75065;BME280;63646;49.110;9.140;2022-12-13T00:10:10;98835.84;;;20.89;53.19
75065;BME280;63646;49.110;9.140;2022-12-13T00:12:36;98836.69;;;20.89;53.22
75065;BME280;63646;49.110;9.140;2022-12-13T00:15:02;98833.19;;;20.89;53.18
75065;BME280;63646;49.110;9.140;2022-12-13T00:17:27;98831.69;;;20.86;53.34
75065;BME280;63646;49.110;9.140;2022-12-13T00:19:53;98828.19;;;20.86;53.06
75065;BME280;63646;49.110;9.140;2022-12-13T00:22:18;98832.50;;;20.87;53.28
75065;BME280;63646;49.110;9.140;2022-12-13T00:24:43;98820.22;;;20.86;53.55
75065;BME280;63646;49.110;9.140;2022-12-13T00:27:09;98815.91;;;20.85;53.22
75065;BME280;63646;49.110;9.140;2022-12-13T00:29:34;98813.25;;;20.85;53.40
75065;BME280;63646;49.110;9.140;2022-12-13T00:32:00;98807.94;;;20.85;53.22
75065;BME280;63646;49.110;9.140;2022-12-13T00:34:25;98814.91;;;20.86;53.52
75065;BME280;63646;49.110;9.140;2022-12-13T00:36:53;98808.78;;;20.85;53.28
75065;BME280;63646;49.110;9.140;2022-12-13T00:39:18;98807.13;;;20.84;53.21
75065;BME280;63646;49.110;9.140;2022-12-13T00:41:44;98801.81;;;20.84;53.00
75065;BME280;63646;49.110;9.140;2022-12-13T00:44:13;98804.47;;;20.84;53.13
75065;BME280;63646;49.110;9.140;2022-12-13T00:46:39;98800.94;;;20.84;53.58
75065;BME280;63646;49.110;9.140;2022-12-13T00:49:05;98806.25;;;20.84;53.17
75065;BME280;63646;49.110;9.140;2022-12-13T00:51:32;98807.13;;;20.84;53.53
75065;BME280;63646;49.110;9.140;2022-12-13T00:53:59;98804.47;;;20.84;53.50
75065;BME280;63646;49.110;9.140;2022-12-13T00:56:28;98809.78;;;20.84;53.16
75065;BME280;63646;49.110;9.140;2022-12-13T00:58:54;98798.47;;;20.82;53.35
75065;BME280;63646;49.110;9.140;2022-12-13T01:01:23;98805.44;;;20.83;53.25
75065;BME280;63646;49.110;9.140;2022-12-13T01:03:49;98793.16;;;20.82;53.18
75065;BME280;63646;49.110;9.140;2022-12-13T01:06:27;98793.97;;;20.83;53.51
75065;BME280;63646;49.110;9.140;2022-12-13T01:08:53;98796.81;;;20.81;53.25
75065;BME280;63646;49.110;9.140;2022-12-13T01:11:19;98793.16;;;20.82;53.19
75065;BME280;63646;49.110;9.140;2022-12-13T01:13:45;98793.16;;;20.82;53.21
75065;BME280;63646;49.110;9.140;2022-12-13T01:16:11;98793.16;;;20.82;53.68
75065;BME280;63646;49.110;9.140;2022-12-13T01:18:37;98792.31;;;20.82;53.25
75065;BME280;63646;49.110;9.140;2022-12-13T01:21:11;98792.63;;;20.79;53.28
75065;BME280;63646;49.110;9.140;2022-12-13T01:23:37;98788.16;;;20.79;53.16
75065;BME280;63646;49.110;9.140;2022-12-13T01:26:04;98796.13;;;20.79;53.37
75065;BME280;63646;49.110;9.140;2022-12-13T01:28:30;98793.47;;;20.79;53.28
75065;BME280;63646;49.110;9.140;2022-12-13T01:30:58;98793.63;;;20.78;53.36
75065;BME280;63646;49.110;9.140;2022-12-13T01:33:25;98791.81;;;20.78;53.28
75065;BME280;63646;49.110;9.140;2022-12-13T01:35:51;98797.13;;;20.78;53.62
75065;BME280;63646;49.110;9.140;2022-12-13T01:38:17;98795.44;;;20.77;53.41
75065;BME280;63646;49.110;9.140;2022-12-13T01:40:44;98785.97;;;20.74;53.30
75065;BME280;63646;49.110;9.140;2022-12-13T01:43:12;98784.84;;;20.77;53.20
75065;BME280;63646;49.110;9.140;2022-12-13T01:45:38;98783.16;;;20.76;53.25
75065;BME280;63646;49.110;9.140;2022-12-13T01:48:11;98790.97;;;20.78;53.26
75065;BME280;63646;49.110;9.140;2022-12-13T01:50:42;98782.31;;;20.75;53.14
75065;BME280;63646;49.110;9.140;2022-12-13T01:53:12;98776.00;;;20.77;53.28
75065;BME280;63646;49.110;9.140;2022-12-13T01:55:40;98779.53;;;20.77;53.54
75065;BME280;63646;49.110;9.140;2022-12-13T01:58:07;98780.50;;;20.76;53.74
75065;BME280;63646;49.110;9.140;2022-12-13T02:00:34;98782.19;;;20.77;53.32
75065;BME280;63646;49.110;9.140;2022-12-13T02:03:00;98782.19;;;20.77;53.50
75065;BME280;63646;49.110;9.140;2022-12-13T02:07:56;98778.84;;;20.75;53.66
75065;BME280;63646;49.110;9.140;2022-12-13T02:10:22;98769.03;;;20.75;53.63
75065;BME280;63646;49.110;9.140;2022-12-13T02:12:49;98771.88;;;20.74;53.27
75065;BME280;63646;49.110;9.140;2022-12-13T02:15:16;98776.34;;;20.73;53.43
75065;BME280;63646;49.110;9.140;2022-12-13T02:20:37;98772.88;;;20.73;53.31
75065;BME280;63646;49.110;9.140;2022-12-13T02:34:24;98763.38;;;20.70;53.69
75065;BME280;63646;49.110;9.140;2022-12-13T02:37:17;98762.53;;;20.70;53.60
75065;BME280;63646;49.110;9.140;2022-12-13T02:39:55;98762.53;;;20.70;53.48
75065;BME280;63646;49.110;9.140;2022-12-13T02:42:30;98761.72;;;20.69;53.27
75065;BME280;63646;49.110;9.140;2022-12-13T02:45:00;98755.56;;;20.69;53.26
75065;BME280;63646;49.110;9.140;2022-12-13T02:47:28;98757.53;;;20.67;53.56
75065;BME280;63646;49.110;9.140;2022-12-13T02:49:57;98751.25;;;20.68;53.73
75065;BME280;63646;49.110;9.140;2022-12-13T02:52:25;98749.59;;;20.67;53.60
75065;BME280;63646;49.110;9.140;2022-12-13T02:54:55;98748.75;;;20.66;53.67
75065;BME280;63646;49.110;9.140;2022-12-13T02:57:35;98757.53;;;20.67;53.22
75065;BME280;63646;49.110;9.140;2022-12-13T03:00:08;98759.38;;;20.66;53.67
75065;BME280;63646;49.110;9.140;2022-12-13T03:14:29;98762.16;;;20.65;53.62
75065;BME280;63646;49.110;9.140;2022-12-13T03:16:59;98751.53;;;20.65;53.27
75065;BME280;63646;49.110;9.140;2022-12-13T03:19:26;98752.53;;;20.64;53.54
75065;BME280;63646;49.110;9.140;2022-12-13T03:21:52;98750.88;;;20.63;53.49
75065;BME280;63646;49.110;9.140;2022-12-13T03:24:19;98754.19;;;20.65;53.32
75065;BME280;63646;49.110;9.140;2022-12-13T03:26:46;98760.50;;;20.64;53.43
75065;BME280;63646;49.110;9.140;2022-12-13T03:29:12;98753.38;;;20.64;53.48
75065;BME280;63646;49.110;9.140;2022-12-13T03:31:38;98740.28;;;20.63;53.44
75065;BME280;63646;49.110;9.140;2022-12-13T03:34:03;98739.44;;;20.62;53.64
75065;BME280;63646;49.110;9.140;2022-12-13T03:36:29;98738.59;;;20.62;53.54
75065;BME280;63646;49.110;9.140;2022-12-13T03:38:54;98743.75;;;20.63;53.73
75065;BME280;63646;49.110;9.140;2022-12-13T03:41:25;98735.78;;;20.63;53.51
75065;BME280;63646;49.110;9.140;2022-12-13T03:43:58;98731.47;;;20.62;53.69
75065;BME280;63646;49.110;9.140;2022-12-13T03:46:24;98737.63;;;20.63;53.43
75065;BME280;63646;49.110;9.140;2022-12-13T03:48:49;98734.97;;;20.63;53.45
75065;BME280;63646;49.110;9.140;2022-12-13T03:51:15;98729.78;;;20.61;53.79
75065;BME280;63646;49.110;9.140;2022-12-13T03:53:40;98736.91;;;20.61;53.57
75065;BME280;63646;49.110;9.140;2022-12-13T03:56:06;98734.44;;;20.59;53.76
75065;BME280;63646;49.110;9.140;2022-12-13T03:58:33;98724.66;;;20.60;53.25
75065;BME280;63646;49.110;9.140;2022-12-13T04:00:58;98716.81;;;20.58;53.50
75065;BME280;63646;49.110;9.140;2022-12-13T04:03:23;98715.69;;;20.61;53.29
75065;BME280;63646;49.110;9.140;2022-12-13T04:05:49;98714.03;;;20.60;53.65
75065;BME280;63646;49.110;9.140;2022-12-13T04:08:14;98717.69;;;20.59;53.73
75065;BME280;63646;49.110;9.140;2022-12-13T04:10:40;98718.50;;;20.59;53.61
75065;BME280;63646;49.110;9.140;2022-12-13T04:13:05;98719.47;;;20.58;53.45
75065;BME280;63646;49.110;9.140;2022-12-13T04:15:49;98729.97;;;20.60;53.45
75065;BME280;63646;49.110;9.140;2022-12-13T04:18:16;98727.31;;;20.60;53.56
75065;BME280;63646;49.110;9.140;2022-12-13T04:20:42;98727.31;;;20.60;53.56
75065;BME280;63646;49.110;9.140;2022-12-13T04:23:08;98727.59;;;20.57;53.90
75065;BME280;63646;49.110;9.140;2022-12-13T04:25:33;98729.97;;;20.60;53.31
75065;BME280;63646;49.110;9.140;2022-12-13T04:27:58;98723.00;;;20.59;53.28
75065;BME280;63646;49.110;9.140;2022-12-13T04:30:24;98727.44;;;20.58;53.56
75065;BME280;63646;49.110;9.140;2022-12-13T04:32:49;98727.59;;;20.57;53.64
75065;BME280;63646;49.110;9.140;2022-12-13T04:35:14;98720.34;;;20.59;53.56
75065;BME280;63646;49.110;9.140;2022-12-13T04:37:40;98722.31;;;20.57;53.34
75065;BME280;63646;49.110;9.140;2022-12-13T04:40:06;98724.94;;;20.57;53.61
75065;BME280;63646;49.110;9.140;2022-12-13T04:42:31;98726.59;;;20.58;53.22
75065;BME280;63646;49.110;9.140;2022-12-13T04:44:56;98727.44;;;20.58;53.06
75065;BME280;63646;49.110;9.140;2022-12-13T04:47:22;98719.47;;;20.58;53.28
75065;BME280;63646;49.110;9.140;2022-12-13T04:49:47;98718.50;;;20.59;53.27
75065;BME280;63646;49.110;9.140;2022-12-13T04:52:12;98716.81;;;20.58;53.72
75065;BME280;63646;49.110;9.140;2022-12-13T04:54:38;98714.16;;;20.58;52.91
75065;BME280;63646;49.110;9.140;2022-12-13T04:57:05;98714.34;;;20.57;53.14
75065;BME280;63646;49.110;9.140;2022-12-13T04:59:31;98716.34;;;20.55;53.57
75065;BME280;63646;49.110;9.140;2022-12-13T05:01:57;98719.00;;;20.55;53.52
75065;BME280;63646;49.110;9.140;2022-12-13T05:04:22;98721.63;;;20.55;53.38
75065;BME280;63646;49.110;9.140;2022-12-13T05:06:47;98713.00;;;20.53;53.41
75065;BME280;63646;49.110;9.140;2022-12-13T05:09:13;98712.16;;;20.52;53.77
75065;BME280;63646;49.110;9.140;2022-12-13T05:11:39;98715.63;;;20.53;53.34
75065;BME280;63646;49.110;9.140;2022-12-13T05:14:04;98716.63;;;20.52;53.46
75065;BME280;63646;49.110;9.140;2022-12-13T05:16:29;98713.81;;;20.53;53.64
75065;BME280;63646;49.110;9.140;2022-12-13T05:18:55;98719.94;;;20.54;53.42
75065;BME280;63646;49.110;9.140;2022-12-13T05:21:20;98716.16;;;20.56;53.28
75065;BME280;63646;49.110;9.140;2022-12-13T05:23:46;98705.72;;;20.55;53.65
75065;BME280;63646;49.110;9.140;2022-12-13T05:26:11;98707.38;;;20.56;53.47
75065;BME280;63646;49.110;9.140;2022-12-13T05:28:37;98709.84;;;20.57;53.32
75065;BME280;63646;49.110;9.140;2022-12-13T05:31:08;98711.84;;;20.55;53.77
75065;BME280;63646;49.110;9.140;2022-12-13T05:33:34;98713.34;;;20.58;53.65
75065;BME280;63646;49.110;9.140;2022-12-13T05:36:00;98707.19;;;20.57;53.21
75065;BME280;63646;49.110;9.140;2022-12-13T05:38:26;98707.06;;;20.59;53.35
75065;BME280;63646;49.110;9.140;2022-12-13T05:40:51;98702.72;;;20.58;53.63
75065;BME280;63646;49.110;9.140;2022-12-13T05:43:17;98705.06;;;20.61;53.71
75065;BME280;63646;49.110;9.140;2022-12-13T05:45:42;98706.41;;;20.65;53.61
75065;BME280;63646;49.110;9.140;2022-12-13T05:48:07;98698.97;;;20.68;53.92
75065;BME280;63646;49.110;9.140;2022-12-13T05:50:34;98702.97;;;20.72;53.83
75065;BME280;63646;49.110;9.140;2022-12-13T05:53:02;98705.50;;;20.74;53.71
75065;BME280;63646;49.110;9.140;2022-12-13T05:55:27;98709.16;;;20.73;53.53
75065;BME280;63646;49.110;9.140;2022-12-13T05:57:53;98698.53;;;20.73;53.64
75065;BME280;63646;49.110;9.140;2022-12-13T06:00:19;98698.53;;;20.73;53.32
75065;BME280;63646;49.110;9.140;2022-12-13T06:02:44;98694.88;;;20.74;53.99
75065;BME280;63646;49.110;9.140;2022-12-13T06:05:10;98690.38;;;20.74;53.91
75065;BME280;63646;49.110;9.140;2022-12-13T06:07:36;98694.56;;;20.77;53.73
75065;BME280;63646;49.110;9.140;2022-12-13T06:10:05;98692.88;;;20.76;54.00
75065;BME280;63646;49.110;9.140;2022-12-13T06:12:33;98693.41;;;20.80;53.78
75065;BME280;63646;49.110;9.140;2022-12-13T06:14:59;98691.94;;;20.85;53.37
75065;BME280;63646;49.110;9.140;2022-12-13T06:17:24;98697.25;;;20.85;53.85
75065;BME280;63646;49.110;9.140;2022-12-13T06:19:50;98707.03;;;20.85;53.30
75065;BME280;63646;49.110;9.140;2022-12-13T06:22:17;98691.94;;;20.85;53.49
75065;BME280;63646;49.110;9.140;2022-12-13T06:24:42;98689.44;;;20.84;53.66
75065;BME280;63646;49.110;9.140;2022-12-13T06:27:07;98691.94;;;20.85;53.24
75065;BME280;63646;49.110;9.140;2022-12-13T06:29:33;98691.94;;;20.85;53.81
75065;BME280;63646;49.110;9.140;2022-12-13T06:31:59;98690.28;;;20.84;53.52
75065;BME280;63646;49.110;9.140;2022-12-13T06:34:26;98688.16;;;20.88;53.48
75065;BME280;63646;49.110;9.140;2022-12-13T06:36:51;98696.25;;;20.86;53.47
75065;BME280;63646;49.110;9.140;2022-12-13T06:39:17;98703.09;;;20.89;53.55
75065;BME280;63646;49.110;9.140;2022-12-13T06:41:43;98710.53;;;20.85;53.41
75065;BME280;63646;49.110;9.140;2022-12-13T06:44:09;98712.19;;;20.86;53.29
75065;BME280;63646;49.110;9.140;2022-12-13T06:46:37;98716.50;;;20.87;53.62
75065;BME280;63646;49.110;9.140;2022-12-13T06:49:06;98710.34;;;20.87;53.54
75065;BME280;63646;49.110;9.140;2022-12-13T06:51:32;98705.88;;;20.87;54.10
75065;BME280;63646;49.110;9.140;2022-12-13T06:54:00;98718.84;;;20.90;53.76
75065;BME280;63646;49.110;9.140;2022-12-13T06:56:26;98712.72;;;20.90;53.70
75065;BME280;63646;49.110;9.140;2022-12-13T06:58:52;98712.72;;;20.90;53.50
75065;BME280;63646;49.110;9.140;2022-12-13T07:01:18;98708.38;;;20.89;53.75
75065;BME280;63646;49.110;9.140;2022-12-13T07:03:43;98710.88;;;20.90;53.44
75065;BME280;63646;49.110;9.140;2022-12-13T07:06:19;98704.91;;;20.88;53.71
75065;BME280;63646;49.110;9.140;2022-12-13T07:08:50;98705.88;;;20.87;53.97
75065;BME280;63646;49.110;9.140;2022-12-13T07:11:19;98716.50;;;20.87;54.03
75065;BME280;63646;49.110;9.140;2022-12-13T07:13:44;98724.16;;;20.90;54.16
75065;BME280;63646;49.110;9.140;2022-12-13T07:16:10;98720.66;;;20.90;53.83
75065;BME280;63646;49.110;9.140;2022-12-13T07:18:36;98716.19;;;20.90;53.90
75065;BME280;63646;49.110;9.140;2022-12-13T07:21:10;98715.34;;;20.90;53.88
75065;BME280;63646;49.110;9.140;2022-12-13T07:23:37;98716.03;;;20.92;54.30
75065;BME280;63646;49.110;9.140;2022-12-13T07:26:03;98715.22;;;20.91;54.35
75065;BME280;63646;49.110;9.140;2022-12-13T07:28:33;98718.53;;;20.93;54.33
75065;BME280;63646;49.110;9.140;2022-12-13T07:31:00;98721.19;;;20.93;54.15
75065;BME280;63646;49.110;9.140;2022-12-13T07:33:26;98727.31;;;20.94;53.83
75065;BME280;63646;49.110;9.140;2022-12-13T07:36:06;98734.47;;;20.93;53.20
75065;BME280;63646;49.110;9.140;2022-12-13T07:38:32;98741.59;;;20.93;53.40
75065;BME280;63646;49.110;9.140;2022-12-13T07:40:58;98745.25;;;20.92;53.48
75065;BME280;63646;49.110;9.140;2022-12-13T07:43:24;98741.59;;;20.93;53.25
75065;BME280;63646;49.110;9.140;2022-12-13T07:45:50;98742.25;;;20.95;53.28
75065;BME280;63646;49.110;9.140;2022-12-13T07:48:16;98743.13;;;20.95;53.77
75065;BME280;63646;49.110;9.140;2022-12-13T07:50:42;98749.25;;;20.96;54.03
75065;BME280;63646;49.110;9.140;2022-12-13T07:53:07;98747.56;;;20.95;53.77
75065;BME280;63646;49.110;9.140;2022-12-13T07:55:36;98751.91;;;20.96;53.43
75065;BME280;63646;49.110;9.140;2022-12-13T07:58:12;98758.06;;;20.96;53.61
75065;BME280;63646;49.110;9.140;2022-12-13T08:00:42;98754.72;;;20.94;53.43
75065;BME280;63646;49.110;9.140;2022-12-13T08:03:08;98759.06;;;20.95;53.64
75065;BME280;63646;49.110;9.140;2022-12-13T08:05:34;98764.38;;;20.95;53.49
75065;BME280;63646;49.110;9.140;2022-12-13T08:08:01;98763.38;;;20.96;53.66
75065;BME280;63646;49.110;9.140;2022-12-13T08:10:27;98759.06;;;20.95;53.74
75065;BME280;63646;49.110;9.140;2022-12-13T08:12:52;98758.19;;;20.95;53.65
75065;BME280;63646;49.110;9.140;2022-12-13T08:15:18;98760.84;;;20.95;53.64
75065;BME280;63646;49.110;9.140;2022-12-13T08:17:44;98751.09;;;20.95;53.21
75065;BME280;63646;49.110;9.140;2022-12-13T08:20:09;98754.72;;;20.94;52.69
75065;BME280;63646;49.110;9.140;2022-12-13T08:22:35;98753.75;;;20.95;53.12
75065;BME280;63646;49.110;9.140;2022-12-13T08:25:00;98757.22;;;20.96;52.68
75065;BME280;63646;49.110;9.140;2022-12-13T08:27:26;98754.72;;;20.94;52.99
75065;BME280;63646;49.110;9.140;2022-12-13T08:29:52;98750.22;;;20.95;53.33
75065;BME280;63646;49.110;9.140;2022-12-13T08:32:18;98746.75;;;20.94;52.85
75065;BME280;63646;49.110;9.140;2022-12-13T08:34:43;98739.78;;;20.93;53.12
75065;BME280;63646;49.110;9.140;2022-12-13T08:37:10;98740.47;;;20.95;53.29
75065;BME280;63646;49.110;9.140;2022-12-13T08:39:37;98753.75;;;20.95;53.36
75065;BME280;63646;49.110;9.140;2022-12-13T08:42:10;98760.84;;;20.95;52.96
75065;BME280;63646;49.110;9.140;2022-12-13T08:44:38;98760.84;;;20.95;53.25
75065;BME280;63646;49.110;9.140;2022-12-13T08:47:03;98765.50;;;20.93;53.18
75065;BME280;63646;49.110;9.140;2022-12-13T08:49:29;98763.69;;;20.93;52.82
75065;BME280;63646;49.110;9.140;2022-12-13T08:51:54;98756.84;;;20.91;53.29
75065;BME280;63646;49.110;9.140;2022-12-13T08:54:19;98750.72;;;20.90;53.21
75065;BME280;63646;49.110;9.140;2022-12-13T08:56:45;98751.72;;;20.89;53.08
75065;BME280;63646;49.110;9.140;2022-12-13T08:59:10;98750.06;;;20.88;53.07
75065;BME280;63646;49.110;9.140;2022-12-13T09:01:36;98751.72;;;20.89;53.36
75065;BME280;63646;49.110;9.140;2022-12-13T09:04:01;98751.72;;;20.89;53.10
75065;BME280;63646;49.110;9.140;2022-12-13T09:06:27;98754.53;;;20.88;53.28
75065;BME280;63646;49.110;9.140;2022-12-13T09:08:53;98756.34;;;20.87;53.13
75065;BME280;63646;49.110;9.140;2022-12-13T09:11:19;98756.34;;;20.87;53.12
75065;BME280;63646;49.110;9.140;2022-12-13T09:13:45;98758.97;;;20.87;53.51
75065;BME280;63646;49.110;9.140;2022-12-13T09:16:13;98771.13;;;20.90;53.39
75065;BME280;63646;49.110;9.140;2022-12-13T09:18:39;98758.97;;;20.87;53.71
75065;BME280;63646;49.110;9.140;2022-12-13T09:21:09;98759.84;;;20.88;53.48
75065;BME280;63646;49.110;9.140;2022-12-13T09:23:35;98757.03;;;20.89;53.30
75065;BME280;63646;49.110;9.140;2022-12-13T09:26:01;98753.69;;;20.87;53.61
75065;BME280;63646;49.110;9.140;2022-12-13T09:28:28;98750.88;;;20.89;53.17
75065;BME280;63646;49.110;9.140;2022-12-13T09:30:54;98751.72;;;20.89;53.69
75065;BME280;63646;49.110;9.140;2022-12-13T09:33:20;98756.19;;;20.89;53.43
75065;BME280;63646;49.110;9.140;2022-12-13T09:35:45;98749.06;;;20.89;53.36
75065;BME280;63646;49.110;9.140;2022-12-13T09:38:11;98745.25;;;20.92;53.33
75065;BME280;63646;49.110;9.140;2022-12-13T09:40:38;98754.06;;;20.92;52.99
75065;BME280;63646;49.110;9.140;2022-12-13T09:43:05;98750.56;;;20.92;53.68
75065;BME280;63646;49.110;9.140;2022-12-13T09:45:31;98755.72;;;20.93;53.23
75065;BME280;63646;49.110;9.140;2022-12-13T09:47:57;98756.41;;;20.95;53.39
75065;BME280;63646;49.110;9.140;2022-12-13T09:52:48;98755.41;;;20.96;53.30
75065;BME280;63646;49.110;9.140;2022-12-13T09:55:25;98756.06;;;20.98;53.24
75065;BME280;63646;49.110;9.140;2022-12-13T09:57:53;98748.25;;;20.97;53.65
75065;BME280;63646;49.110;9.140;2022-12-13T10:00:21;98751.59;;;20.99;53.29
75065;BME280;63646;49.110;9.140;2022-12-13T10:02:50;98749.78;;;20.99;53.36
75065;BME280;63646;49.110;9.140;2022-12-13T10:05:21;98735.69;;;20.99;53.28
75065;BME280;63646;49.110;9.140;2022-12-13T10:07:52;98738.34;;;20.99;53.42
75065;BME280;63646;49.110;9.140;2022-12-13T10:10:18;98726.84;;;20.98;52.78
75065;BME280;63646;49.110;9.140;2022-12-13T10:12:45;98732.00;;;21.00;52.91
75065;BME280;63646;49.110;9.140;2022-12-13T10:15:16;98735.50;;;21.01;53.46
75065;BME280;63646;49.110;9.140;2022-12-13T10:17:43;98733.69;;;21.01;53.01
75065;BME280;63646;49.110;9.140;2022-12-13T10:20:17;98728.34;;;21.01;53.06
75065;BME280;63646;49.110;9.140;2022-12-13T10:22:43;98731.72;;;21.03;53.35
75065;BME280;63646;49.110;9.140;2022-12-13T10:25:08;98724.72;;;21.02;53.38
75065;BME280;63646;49.110;9.140;2022-12-13T10:27:36;98730.03;;;21.02;53.58
75065;BME280;63646;49.110;9.140;2022-12-13T10:32:32;98702.63;;;21.02;53.57
75065;BME280;63646;49.110;9.140;2022-12-13T10:35:26;98710.59;;;21.02;53.34
75065;BME280;63646;49.110;9.140;2022-12-13T10:37:54;98703.63;;;21.01;53.03
75065;BME280;63646;49.110;9.140;2022-12-13T10:43:14;98701.66;;;21.03;53.11
75065;BME280;63646;49.110;9.140;2022-12-13T10:45:41;98698.16;;;21.02;53.02
75065;BME280;63646;49.110;9.140;2022-12-13T10:48:19;98704.31;;;21.03;52.98
75065;BME280;63646;49.110;9.140;2022-12-13T10:51:16;98702.63;;;21.02;52.92
75065;BME280;63646;49.110;9.140;2022-12-13T10:53:47;98704.16;;;21.04;52.78
75065;BME280;63646;49.110;9.140;2022-12-13T10:56:15;98699.84;;;21.03;52.94
75065;BME280;63646;49.110;9.140;2022-12-13T10:58:43;98695.34;;;21.04;52.63
75065;BME280;63646;49.110;9.140;2022-12-13T11:03:42;98693.69;;;21.03;52.99
75065;BME280;63646;49.110;9.140;2022-12-13T11:06:13;98690.03;;;21.04;53.19
75065;BME280;63646;49.110;9.140;2022-12-13T11:08:40;98686.69;;;21.02;53.24
75065;BME280;63646;49.110;9.140;2022-12-13T11:11:07;98675.09;;;21.03;52.92
75065;BME280;63646;49.110;9.140;2022-12-13T11:13:40;98669.94;;;21.01;53.33
75065;BME280;63646;49.110;9.140;2022-12-13T11:16:22;98644.06;;;21.03;53.38
75065;BME280;63646;49.110;9.140;2022-12-13T11:18:52;98633.25;;;21.05;53.40
75065;BME280;63646;49.110;9.140;2022-12-13T11:21:29;98640.22;;;21.06;53.60
75065;BME280;63646;49.110;9.140;2022-12-13T11:23:57;98635.91;;;21.05;53.65
75065;BME280;63646;49.110;9.140;2022-12-13T11:26:25;98635.25;;;21.03;53.60
75065;BME280;63646;49.110;9.140;2022-12-13T11:39:52;98652.84;;;21.04;52.19
75065;BME280;63646;49.110;9.140;2022-12-13T11:42:34;98652.53;;;21.07;52.77
75065;BME280;63646;49.110;9.140;2022-12-13T11:45:19;98659.19;;;21.11;53.27
75065;BME280;63646;49.110;9.140;2022-12-13T11:50:21;98654.38;;;21.14;53.32
75065;BME280;63646;49.110;9.140;2022-12-13T11:52:55;98656.03;;;21.15;53.33
75065;BME280;63646;49.110;9.140;2022-12-13T11:55:41;98646.25;;;21.16;53.41
75065;BME280;63646;49.110;9.140;2022-12-13T11:58:19;98646.75;;;21.19;53.29
75065;BME280;63646;49.110;9.140;2022-12-13T12:00:54;98637.94;;;21.19;53.34
75065;BME280;63646;49.110;9.140;2022-12-13T12:08:58;98631.63;;;21.20;53.75
75065;BME280;63646;49.110;9.140;2022-12-13T12:11:29;98626.31;;;21.20;53.35
75065;BME280;63646;49.110;9.140;2022-12-13T12:14:20;98629.97;;;21.19;53.24
75065;BME280;63646;49.110;9.140;2022-12-13T12:16:57;98628.84;;;21.21;53.53
75065;BME280;63646;49.110;9.140;2022-12-13T12:19:25;98626.31;;;21.20;53.40
75065;BME280;63646;49.110;9.140;2022-12-13T12:22:09;98623.66;;;21.20;53.35
75065;BME280;63646;49.110;9.140;2022-12-13T12:27:17;98626.81;;;21.23;53.00
75065;BME280;63646;49.110;9.140;2022-12-13T12:35:01;98613.72;;;21.22;53.53
75065;BME280;63646;49.110;9.140;2022-12-13T12:43:38;98620.69;;;21.23;54.11
75065;BME280;63646;49.110;9.140;2022-12-13T12:51:50;98615.69;;;21.20;53.72
75065;BME280;63646;49.110;9.140;2022-12-13T12:57:46;98606.91;;;21.19;53.79
75065;BME280;63646;49.110;9.140;2022-12-13T13:00:18;98596.94;;;21.21;53.99
75065;BME280;63646;49.110;9.140;2022-12-13T13:03:06;98586.47;;;21.20;53.79
75065;BME280;63646;49.110;9.140;2022-12-13T13:05:41;98591.63;;;21.21;53.60
75065;BME280;63646;49.110;9.140;2022-12-13T13:08:17;98584.81;;;21.19;53.44
75065;BME280;63646;49.110;9.140;2022-12-13T13:10:45;98579.81;;;21.16;53.22
75065;BME280;63646;49.110;9.140;2022-12-13T13:13:59;98577.50;;;21.13;52.57
75065;BME280;63646;49.110;9.140;2022-12-13T13:18:54;98578.66;;;21.10;52.27
75065;BME280;63646;49.110;9.140;2022-12-13T13:26:29;98580.00;;;21.06;52.69
75065;BME280;63646;49.110;9.140;2022-12-13T13:31:57;98591.44;;;21.07;52.87
75065;BME280;63646;49.110;9.140;2022-12-13T13:34:28;98591.25;;;21.08;53.00
75065;BME280;63646;49.110;9.140;2022-12-13T13:42:28;98584.81;;;21.11;53.05
75065;BME280;63646;49.110;9.140;2022-12-13T13:47:40;98590.13;;;21.11;53.28
75065;BME280;63646;49.110;9.140;2022-12-13T13:55:53;98598.75;;;21.13;53.21
75065;BME280;63646;49.110;9.140;2022-12-13T14:25:41;98593.44;;;21.13;53.30
75065;BME280;63646;49.110;9.140;2022-12-13T14:30:17;98590.13;;;21.11;53.68
75065;BME280;63646;49.110;9.140;2022-12-13T14:32:46;98590.13;;;21.11;53.94
75065;BME280;63646;49.110;9.140;2022-12-13T14:35:29;98588.44;;;21.10;53.54
75065;BME280;63646;49.110;9.140;2022-12-13T14:38:03;98591.25;;;21.08;53.01
75065;BME280;63646;49.110;9.140;2022-12-13T14:40:46;98591.25;;;21.08;52.37
75065;BME280;63646;49.110;9.140;2022-12-13T14:43:31;98600.88;;;21.09;52.04
75065;BME280;63646;49.110;9.140;2022-12-13T14:46:01;98593.75;;;21.10;51.59
75065;BME280;63646;49.110;9.140;2022-12-13T14:51:36;98587.78;;;21.16;52.40
75065;BME280;63646;49.110;9.140;2022-12-13T14:54:05;98582.34;;;21.17;52.37
75065;BME280;63646;49.110;9.140;2022-12-13T14:56:31;98580.50;;;21.18;52.29
75065;BME280;63646;49.110;9.140;2022-12-13T14:59:00;98581.84;;;21.22;52.33
75065;BME280;63646;49.110;9.140;2022-12-13T15:01:33;98583.50;;;21.23;52.87
75065;BME280;63646;49.110;9.140;2022-12-13T15:04:26;98573.88;;;21.22;52.44
75065;BME280;63646;49.110;9.140;2022-12-13T15:07:11;98578.50;;;21.20;52.83
75065;BME280;63646;49.110;9.140;2022-12-13T15:09:39;98568.69;;;21.20;52.83
75065;BME280;63646;49.110;9.140;2022-12-13T15:12:14;98567.88;;;21.20;52.32
75065;BME280;63646;49.110;9.140;2022-12-13T15:14:45;98567.88;;;21.20;52.61
75065;BME280;63646;49.110;9.140;2022-12-13T15:19:53;98565.41;;;21.18;52.79
75065;BME280;63646;49.110;9.140;2022-12-13T15:22:18;98561.91;;;21.18;53.11
75065;BME280;63646;49.110;9.140;2022-12-13T15:24:44;98564.56;;;21.18;52.98
75065;BME280;63646;49.110;9.140;2022-12-13T15:27:17;98556.75;;;21.16;52.83